Hauptseite
METAR-TAF:

METAR-TAF

Flughäfen :

Calvi, Frankreich

Flughafen Calvi

Breite: 42-32N, Länge: 008-48E, Höhe: 64 m

Beobachtung

Neuester Wetterbericht von vor 18 Minuten, um 09:00 UTC
Wind 5 kt aus Ost/Nordost, variierte zwischen Nord/Nordost und Ost/Südost
Temperatur 24°C
Luftfeuchtigkeit 38%
Luftdruck 1019 hPa
Sichtweite 10 km oder mehr
keine Wolken unter 1500 m und keine Kumulonimbus oder Gewitterwolken

METAR: LFKC 230900Z AUTO 06005KT 020V110 CAVOK 24/09 Q1019 NOSIG

Zeit: 11:18 (09:18 UTC)

Prognose

Neuester Wetterbericht von vor 1 Stunde und 18 Minuten, um 08:00 UTC
Gültige Prognose vom 23 um 09 UTC bis 24 um 09 UTC
Wind 5 kt aus Nord
Sichtweite 10 km oder mehr
keine Wolken unter 1500 m und keine Kumulonimbus oder Gewitterwolken
Übergehend zu
vom 23 um 17 UTC bis 23 um 20 UTC
Wind 5 kt aus Süd

TAF: LFKC 230800Z 2309/2409 36005KT CAVOK BECMG 2317/2320 18005KT TX25/2312Z TN12/2403Z

Wetterbeobachtungen und Prognosen von mehr als 4000 Flughäfen (METAR und TAF Bericht).

Die verfügbaren Stationen werden durch gelbe und rote Markierungen auf der Karte dargestellt.

Führen Sie die Maus auf sie, um den Namen der Station zu sehen.

Darauf klicken, um die Beobachtung von Wetterbeobachtungen und Prognosen zu sehen.

Um die Karte zu ändern : klicken Sie auf den grünen Tasten mit einem schwarzen Kreuz Zum Vergrößern, auf den grünen Button mit einem Gedankenstrich zu verkleinern, oder auf die grünen Pfeile für benachbarte Karten.


METAR-TAF: